Time;durP1;ratioP1;P1;durP2;ratioP2;P2;SDS_P1;SDS_P2;PMS_P1;PMS_P2;Temp;Humidity;BMP_temperature;BMP_pressure;BME280_temperature;BME280_humidity;BME280_pressure;Samples;Min_cycle;Max_cycle;Signal;HPM_P1;HPM_P2
2024/01/03 04:00:41;;;;;;;0.77;0.30;;;24.70;33.00;;;;;;6127292;22;45450;-94
2024/01/03 04:03:08;;;;;;;0.60;0.32;;;24.80;33.10;;;;;;4947451;28;45468;-85
2024/01/03 04:05:35;;;;;;;0.93;0.28;;;24.70;33.10;;;;;;4962150;28;45784;-81
2024/01/03 04:08:01;;;;;;;0.68;0.30;;;24.80;33.10;;;;;;4948628;28;46797;-82
2024/01/03 04:14:08;;;;;;;0.75;0.43;;;24.80;33.10;;;;;;4938467;28;45389;-80
2024/01/03 04:18:38;;;;;;;0.77;0.30;;;24.70;33.10;;;;;;4930633;28;58314;-87
2024/01/03 05:32:59;;;;;;;1.35;0.40;;;24.50;33.20;;;;;;4950919;28;45416;-86
2024/01/03 05:35:37;;;;;;;1.05;0.40;;;24.50;33.20;;;;;;4950262;28;46564;-85
2024/01/03 05:39:01;;;;;;;1.20;0.60;;;24.50;33.10;;;;;;4961240;28;45269;-82
2024/01/03 05:41:52;;;;;;;1.45;0.40;;;24.60;33.20;;;;;;4967762;28;45213;-85
2024/01/03 05:44:50;;;;;;;2.20;0.55;;;24.50;33.20;;;;;;4956775;28;44817;-85
2024/01/03 05:47:43;;;;;;;1.10;0.38;;;24.60;33.20;;;;;;4973713;28;45351;-86
2024/01/03 05:51:23;;;;;;;1.90;0.60;;;24.60;33.20;;;;;;4976494;28;45263;-83
2024/01/03 05:57:51;;;;;;;1.65;0.60;;;24.60;33.20;;;;;;4967380;28;45281;-81
2024/01/03 06:01:05;;;;;;;0.83;0.30;;;24.60;33.20;;;;;;4964250;28;45385;-87
2024/01/03 06:03:40;;;;;;;0.90;0.40;;;24.50;33.20;;;;;;4947616;28;45612;-81
2024/01/03 06:07:10;;;;;;;0.77;0.40;;;24.50;33.20;;;;;;4929512;28;44943;-82
2024/01/03 06:10:35;;;;;;;1.23;0.50;;;24.50;33.20;;;;;;4915704;28;45321;-84
2024/01/03 06:13:31;;;;;;;0.80;0.50;;;24.50;33.20;;;;;;4924099;28;45200;-86
2024/01/03 06:16:22;;;;;;;1.33;0.50;;;24.60;33.30;;;;;;4955565;28;45267;-92
2024/01/03 06:19:14;;;;;;;1.13;0.40;;;24.50;33.30;;;;;;4982508;28;45342;-81
2024/01/03 06:22:35;;;;;;;1.13;0.40;;;24.50;33.20;;;;;;4952248;28;44844;-81
2024/01/03 06:26:32;;;;;;;1.42;0.55;;;24.50;33.20;;;;;;4943093;28;45408;-87
2024/01/03 06:29:57;;;;;;;1.13;0.50;;;24.50;33.30;;;;;;4980862;28;44887;-88
2024/01/03 06:33:59;;;;;;;1.20;0.50;;;24.50;33.30;;;;;;4910566;28;44627;-87
2024/01/03 06:37:44;;;;;;;1.10;0.47;;;24.40;33.20;;;;;;4847198;29;45337;-81
2024/01/03 06:41:37;;;;;;;1.35;0.60;;;24.40;33.30;;;;;;4760042;29;45383;-80
2024/01/03 06:45:01;;;;;;;1.50;0.50;;;24.40;33.30;;;;;;4869500;29;44782;-81
2024/01/03 06:49:08;;;;;;;1.95;0.60;;;24.40;33.30;;;;;;4903711;28;44753;-82
2024/01/03 07:00:19;;;;;;;2.58;0.70;;;24.40;33.30;;;;;;4857646;29;45359;-85
2024/01/03 07:03:15;;;;;;;1.45;0.60;;;24.30;33.20;;;;;;4873624;29;45271;-86
2024/01/03 07:06:05;;;;;;;1.67;0.60;;;24.40;33.30;;;;;;4863860;29;45170;-80
2024/01/03 07:08:42;;;;;;;1.08;0.50;;;24.30;33.20;;;;;;4888656;28;46269;-82
2024/01/03 07:11:13;;;;;;;1.60;0.63;;;24.30;33.20;;;;;;4869230;28;45475;-86
2024/01/03 07:13:55;;;;;;;1.48;0.68;;;24.30;33.20;;;;;;4918690;28;45317;-81
2024/01/03 07:16:29;;;;;;;1.17;0.50;;;24.40;33.20;;;;;;4888793;28;45263;-80
2024/01/03 07:20:04;;;;;;;1.75;0.63;;;24.30;33.20;;;;;;4910939;28;45657;-82
2024/01/03 07:22:51;;;;;;;1.23;0.60;;;24.30;33.20;;;;;;4961196;28;45207;-82
2024/01/03 07:25:17;;;;;;;2.38;0.80;;;24.30;33.20;;;;;;4952339;28;44789;-84
2024/01/03 07:28:01;;;;;;;2.47;0.80;;;24.30;33.20;;;;;;4975263;28;44793;-83
2024/01/03 07:30:52;;;;;;;2.07;0.80;;;24.20;33.10;;;;;;4977795;28;45270;-81
2024/01/03 07:34:06;;;;;;;1.37;0.60;;;24.30;33.20;;;;;;4979445;28;45207;-80
2024/01/03 07:37:04;;;;;;;2.22;0.80;;;24.30;33.10;;;;;;4968765;28;44728;-82
2024/01/03 07:40:17;;;;;;;1.83;0.70;;;24.30;33.10;;;;;;4900983;28;44845;-82
2024/01/03 07:43:09;;;;;;;2.42;0.60;;;24.30;33.20;;;;;;4960646;28;46078;-84
2024/01/03 07:46:09;;;;;;;0.93;0.47;;;24.30;33.10;;;;;;4936224;28;45327;-94
2024/01/03 07:49:03;;;;;;;2.35;0.80;;;24.30;33.20;;;;;;4960743;28;44604;-86
2024/01/03 07:51:48;;;;;;;1.83;0.70;;;24.20;33.10;;;;;;4958285;28;45186;-83
2024/01/03 07:54:53;;;;;;;1.45;0.80;;;24.20;33.10;;;;;;4940657;28;45701;-84
2024/01/03 07:57:20;;;;;;;1.77;0.80;;;24.20;33.10;;;;;;4929787;28;45445;-82
2024/01/03 07:59:51;;;;;;;2.22;0.80;;;24.20;33.20;;;;;;4915150;28;44996;-87
2024/01/03 08:02:25;;;;;;;1.48;0.70;;;24.20;33.10;;;;;;4950696;28;45349;-80
2024/01/03 08:05:52;;;;;;;1.83;0.70;;;24.20;33.70;;;;;;4959747;28;45109;-89
2024/01/03 08:13:59;;;;;;;2.13;0.65;;;24.20;33.10;;;;;;4846223;29;45246;-83
2024/01/03 08:17:40;;;;;;;1.52;0.60;;;24.20;33.20;;;;;;4715359;29;44911;-86
2024/01/03 08:21:25;;;;;;;1.90;0.63;;;24.20;33.20;;;;;;4736999;29;45259;-85
2024/01/03 08:28:45;;;;;;;1.60;0.70;;;24.10;33.20;;;;;;4740065;29;45102;-84
2024/01/03 08:35:44;;;;;;;2.25;0.70;;;24.10;33.20;;;;;;4823964;28;44888;-87
2024/01/03 08:38:24;;;;;;;1.50;0.60;;;24.10;33.20;;;;;;4885815;28;45009;-83
2024/01/03 08:41:13;;;;;;;1.95;0.80;;;24.10;33.20;;;;;;4929289;28;45295;-80
2024/01/03 08:43:54;;;;;;;2.58;0.70;;;24.10;33.20;;;;;;4972616;28;44885;-81
2024/01/03 08:46:42;;;;;;;1.13;0.50;;;24.10;33.20;;;;;;4942907;28;45511;-87
2024/01/03 08:49:16;;;;;;;2.45;0.70;;;24.10;33.30;;;;;;4944246;28;45285;-86
2024/01/03 08:51:50;;;;;;;2.00;0.82;;;24.10;33.20;;;;;;4975086;28;44740;-88
2024/01/03 08:54:25;;;;;;;1.85;0.75;;;24.10;33.30;;;;;;4965105;28;45297;-82
2024/01/03 08:56:54;;;;;;;1.33;0.57;;;24.10;33.30;;;;;;4979443;28;46271;-90
2024/01/03 08:59:24;;;;;;;1.80;0.87;;;24.10;33.30;;;;;;4976325;28;45095;-81
2024/01/03 09:01:52;;;;;;;1.52;0.70;;;24.10;33.30;;;;;;4946223;28;45224;-81
2024/01/03 09:04:22;;;;;;;1.60;0.63;;;24.10;33.30;;;;;;4961459;28;45502;-83
2024/01/03 09:06:53;;;;;;;1.60;0.77;;;24.10;33.30;;;;;;4944439;28;45736;-85
2024/01/03 09:09:43;;;;;;;1.33;0.60;;;24.10;33.30;;;;;;4952279;28;45284;-83
2024/01/03 09:12:29;;;;;;;2.07;0.70;;;24.10;33.30;;;;;;4957485;28;45286;-80
2024/01/03 09:15:09;;;;;;;1.92;0.60;;;24.10;33.40;;;;;;4968327;28;44875;-94
2024/01/03 09:17:42;;;;;;;1.43;0.60;;;24.10;33.40;;;;;;4958867;28;45220;-84
2024/01/03 09:20:11;;;;;;;1.67;0.70;;;24.10;33.40;;;;;;4944989;28;45406;-94
2024/01/03 09:22:38;;;;;;;1.35;0.63;;;24.10;33.40;;;;;;4926948;28;45146;-88
2024/01/03 09:26:14;;;;;;;1.98;0.75;;;24.10;33.50;;;;;;4960024;28;45104;-91
2024/01/03 09:29:15;;;;;;;1.80;0.70;;;24.10;33.40;;;;;;4925680;28;46328;-87
2024/01/03 09:35:41;;;;;;;1.75;0.60;;;24.10;33.50;;;;;;4961487;28;45317;-93
2024/01/03 09:39:29;;;;;;;1.30;0.65;;;24.10;33.50;;;;;;4966130;28;45669;-84
2024/01/03 09:42:21;;;;;;;1.70;0.70;;;24.00;33.50;;;;;;4961698;28;46548;-81
2024/01/03 09:45:15;;;;;;;1.73;0.80;;;24.00;33.50;;;;;;4963270;28;45477;-84
2024/01/03 09:55:09;;;;;;;2.00;0.82;;;24.00;33.60;;;;;;4983145;28;45581;-81
2024/01/03 09:57:57;;;;;;;1.10;0.55;;;24.00;33.60;;;;;;4954632;28;45215;-83
2024/01/03 10:01:56;;;;;;;2.43;0.80;;;24.00;33.70;;;;;;4921853;28;44798;-85
2024/01/03 10:05:31;;;;;;;2.28;0.70;;;24.00;33.70;;;;;;4950105;28;44930;-82
2024/01/03 10:08:45;;;;;;;2.05;0.90;;;24.00;33.80;;;;;;4962406;28;45408;-84
2024/01/03 10:16:33;;;;;;;0.77;0.50;;;23.90;33.70;;;;;;4912207;28;45569;-85
2024/01/03 10:20:52;;;;;;;1.00;0.50;;;23.90;33.80;;;;;;4855778;29;44844;-87
2024/01/03 10:28:12;;;;;;;1.73;0.53;;;23.90;33.90;;;;;;4770323;29;44782;-84
2024/01/03 10:32:15;;;;;;;1.17;0.40;;;23.90;33.90;;;;;;4723890;29;44785;-82
2024/01/03 10:35:32;;;;;;;0.77;0.40;;;23.90;33.90;;;;;;4779949;29;45962;-81
2024/01/03 11:12:22;;;;;;;0.77;0.60;;;23.70;34.50;;;;;;4977954;22;45207;-40
2024/01/03 11:14:48;;;;;;;1.20;0.50;;;23.70;34.60;;;;;;4946087;28;45231;-39
2024/01/03 11:17:13;;;;;;;1.48;0.50;;;23.70;34.60;;;;;;4960257;28;45257;-39
2024/01/03 11:19:39;;;;;;;0.90;0.43;;;23.70;34.60;;;;;;4964812;28;46133;-40
2024/01/03 11:22:05;;;;;;;1.05;0.50;;;23.70;34.60;;;;;;4958332;28;45500;-39
2024/01/03 11:24:33;;;;;;;1.35;0.57;;;23.70;34.50;;;;;;4979612;28;45309;-39
2024/01/03 11:27:03;;;;;;;1.10;0.33;;;23.70;34.50;;;;;;4979030;28;45466;-38
2024/01/03 11:29:39;;;;;;;1.17;0.50;;;23.70;34.50;;;;;;4997238;28;45666;-39
2024/01/03 11:32:08;;;;;;;1.25;0.60;;;23.80;34.60;;;;;;4968274;28;45307;-40
2024/01/03 11:34:46;;;;;;;0.90;0.50;;;23.70;34.50;;;;;;4991356;28;45573;-40
2024/01/03 11:37:18;;;;;;;1.60;0.50;;;23.70;34.50;;;;;;4975624;28;45767;-39
2024/01/03 11:39:49;;;;;;;1.52;0.55;;;23.70;34.50;;;;;;4980538;28;45463;-39
2024/01/03 11:42:35;;;;;;;0.95;0.50;;;23.70;34.50;;;;;;4962362;28;47189;-40
2024/01/03 11:45:15;;;;;;;1.20;0.50;;;23.70;34.40;;;;;;4987506;28;45314;-39
2024/01/03 11:47:41;;;;;;;1.00;0.40;;;23.70;34.50;;;;;;4985661;28;45603;-39
2024/01/03 11:50:08;;;;;;;1.05;0.65;;;23.70;34.50;;;;;;4959041;28;48024;-39
2024/01/03 11:52:35;;;;;;;1.17;0.60;;;23.70;34.50;;;;;;4989132;28;45399;-40
2024/01/03 11:55:06;;;;;;;1.60;0.60;;;23.70;34.50;;;;;;4986761;28;45177;-40
2024/01/03 11:57:33;;;;;;;1.17;0.60;;;23.70;34.50;;;;;;4948862;28;46620;-40
2024/01/03 12:00:02;;;;;;;0.87;0.50;;;23.70;34.60;;;;;;4992157;28;45650;-40
2024/01/03 12:02:28;;;;;;;0.85;0.60;;;23.70;34.60;;;;;;4968159;28;45233;-39
2024/01/03 12:05:05;;;;;;;0.85;0.52;;;23.70;34.70;;;;;;4987631;28;45015;-39
2024/01/03 12:07:35;;;;;;;0.75;0.40;;;23.70;34.60;;;;;;4970524;28;45815;-39
2024/01/03 12:10:01;;;;;;;2.00;0.60;;;23.70;34.60;;;;;;4969722;28;46030;-40
2024/01/03 12:12:27;;;;;;;1.37;0.50;;;23.70;34.60;;;;;;4962829;28;45622;-40
2024/01/03 12:14:53;;;;;;;1.57;0.80;;;23.70;34.60;;;;;;4967911;28;45252;-40
2024/01/03 12:17:31;;;;;;;1.67;0.60;;;23.70;34.60;;;;;;4969792;28;45258;-40
2024/01/03 12:20:10;;;;;;;0.70;0.50;;;23.70;34.60;;;;;;4989039;28;45221;-39
2024/01/03 12:22:36;;;;;;;0.90;0.60;;;23.70;34.70;;;;;;4982190;28;45254;-39
2024/01/03 12:25:02;;;;;;;2.43;0.70;;;23.70;34.70;;;;;;4984367;28;45199;-40
2024/01/03 12:27:29;;;;;;;1.00;0.50;;;23.70;34.70;;;;;;4933372;28;45559;-40
2024/01/03 12:30:14;;;;;;;1.10;0.50;;;23.70;34.70;;;;;;4991808;28;45128;-39
2024/01/03 12:32:40;;;;;;;1.38;0.60;;;23.60;34.70;;;;;;4985633;28;44682;-39
2024/01/03 12:35:06;;;;;;;1.13;0.50;;;23.60;34.70;;;;;;4969682;28;45470;-39
2024/01/03 12:37:32;;;;;;;0.50;0.40;;;23.70;34.80;;;;;;4949341;28;45244;-40
2024/01/03 12:39:58;;;;;;;1.40;0.60;;;23.60;34.70;;;;;;4977007;28;45990;-39
2024/01/03 12:42:23;;;;;;;0.90;0.40;;;23.60;34.70;;;;;;4944355;28;45265;-40
2024/01/03 12:44:50;;;;;;;0.50;0.40;;;23.60;34.70;;;;;;4994583;28;45444;-40
2024/01/03 12:47:15;;;;;;;0.90;0.50;;;23.60;34.70;;;;;;4967231;28;45296;-39
2024/01/03 12:49:41;;;;;;;1.00;0.50;;;23.60;34.70;;;;;;4966381;28;45403;-39
2024/01/03 12:52:07;;;;;;;0.63;0.40;;;23.60;34.70;;;;;;4956553;28;45224;-40
2024/01/03 12:54:34;;;;;;;0.77;0.47;;;23.60;34.70;;;;;;4984706;28;45241;-40
2024/01/03 12:56:59;;;;;;;1.15;0.52;;;23.60;34.70;;;;;;4984483;28;45373;-40
2024/01/03 12:59:25;;;;;;;0.80;0.30;;;23.70;34.80;;;;;;4993087;28;46570;-40
2024/01/03 13:01:50;;;;;;;0.70;0.47;;;23.70;34.80;;;;;;4973567;28;46454;-39
2024/01/03 13:04:16;;;;;;;0.87;0.40;;;23.60;34.70;;;;;;4989818;28;46457;-40
2024/01/03 13:06:42;;;;;;;1.10;0.60;;;23.60;35.40;;;;;;4970082;28;45730;-40
2024/01/03 13:09:08;;;;;;;0.60;0.30;;;23.60;34.80;;;;;;4975686;28;45666;-40
2024/01/03 13:11:34;;;;;;;0.80;0.30;;;23.60;34.80;;;;;;4976459;28;45761;-40
2024/01/03 13:14:00;;;;;;;0.70;0.30;;;23.60;34.90;;;;;;4972662;28;45574;-40
2024/01/03 13:16:25;;;;;;;0.80;0.30;;;23.60;34.80;;;;;;4974760;28;45993;-40
2024/01/03 13:18:51;;;;;;;0.63;0.43;;;23.60;34.90;;;;;;4992530;28;46068;-39
2024/01/03 13:21:17;;;;;;;0.40;0.40;;;23.60;34.90;;;;;;4980899;28;45601;-40
2024/01/03 13:23:43;;;;;;;1.15;0.47;;;23.60;34.90;;;;;;4989261;28;46633;-39
2024/01/03 13:26:09;;;;;;;1.20;0.33;;;23.60;35.00;;;;;;4956508;28;45272;-39
2024/01/03 13:28:35;;;;;;;0.70;0.40;;;23.60;34.90;;;;;;4995857;28;45270;-41
2024/01/03 13:31:01;;;;;;;1.97;0.40;;;23.60;35.00;;;;;;4973648;28;45735;-39
2024/01/03 13:33:26;;;;;;;0.97;0.50;;;23.60;35.00;;;;;;4990005;28;45119;-40
2024/01/03 13:35:52;;;;;;;0.90;0.50;;;23.60;35.00;;;;;;4988199;28;45682;-40
2024/01/03 13:38:17;;;;;;;0.60;0.30;;;23.50;35.00;;;;;;4991179;28;45418;-40
2024/01/03 13:40:46;;;;;;;1.13;0.40;;;23.50;35.00;;;;;;4962595;28;45417;-39
2024/01/03 13:43:11;;;;;;;0.68;0.40;;;23.50;35.60;;;;;;4965625;28;45157;-39
2024/01/03 13:45:37;;;;;;;0.83;0.40;;;23.50;35.00;;;;;;4978543;28;45670;-39
2024/01/03 13:48:03;;;;;;;1.50;0.43;;;23.50;35.20;;;;;;4974094;28;45578;-40
2024/01/03 13:50:29;;;;;;;0.97;0.50;;;23.50;35.00;;;;;;4968783;28;45579;-40
2024/01/03 13:52:55;;;;;;;1.07;0.30;;;23.50;35.10;;;;;;4981008;28;45472;-40
2024/01/03 13:55:22;;;;;;;0.60;0.30;;;23.50;35.00;;;;;;4986552;28;45431;-39
2024/01/03 13:57:48;;;;;;;1.20;0.40;;;23.50;35.00;;;;;;4991845;28;45288;-40
2024/01/03 14:00:14;;;;;;;1.52;0.50;;;23.50;35.00;;;;;;4983881;28;45209;-39
2024/01/03 14:02:41;;;;;;;1.33;0.50;;;23.50;35.00;;;;;;4988346;28;44841;-41
2024/01/03 14:05:07;;;;;;;0.65;0.50;;;23.50;35.00;;;;;;4992551;28;44916;-39
2024/01/03 14:07:32;;;;;;;0.57;0.38;;;23.50;35.10;;;;;;4962152;28;46306;-39
2024/01/03 14:09:58;;;;;;;0.53;0.33;;;23.50;35.00;;;;;;4953812;28;45599;-40
2024/01/03 14:12:23;;;;;;;0.50;0.40;;;23.50;35.10;;;;;;4975437;28;45350;-39
2024/01/03 14:14:49;;;;;;;0.80;0.40;;;23.50;35.10;;;;;;4994449;28;45307;-39
2024/01/03 14:17:14;;;;;;;0.70;0.30;;;23.50;35.00;;;;;;4960223;28;45521;-40
2024/01/03 14:19:40;;;;;;;0.63;0.40;;;23.50;35.00;;;;;;4989571;28;45421;-39
2024/01/03 14:22:06;;;;;;;0.70;0.50;;;23.50;35.00;;;;;;4982052;28;45878;-39
2024/01/03 14:24:32;;;;;;;1.55;0.50;;;23.50;35.00;;;;;;4984953;28;45747;-39
2024/01/03 14:26:57;;;;;;;0.97;0.30;;;23.50;35.00;;;;;;4949280;28;47348;-40
2024/01/03 14:29:23;;;;;;;0.80;0.40;;;23.50;35.00;;;;;;4991694;28;46037;-39
2024/01/03 14:31:48;;;;;;;0.50;0.40;;;23.50;35.00;;;;;;4975127;28;45276;-40
2024/01/03 14:34:14;;;;;;;0.63;0.30;;;23.50;35.00;;;;;;4990537;28;44996;-40
2024/01/03 14:36:40;;;;;;;0.80;0.40;;;23.50;35.10;;;;;;4969612;28;45476;-40
2024/01/03 14:39:08;;;;;;;0.65;0.38;;;23.50;35.10;;;;;;4994601;28;45055;-39
2024/01/03 14:41:37;;;;;;;2.03;0.40;;;23.50;35.10;;;;;;4981691;28;45192;-38
2024/01/03 14:44:05;;;;;;;0.98;0.45;;;23.50;35.10;;;;;;4992368;28;45402;-40
2024/01/03 14:46:33;;;;;;;1.00;0.40;;;23.50;35.10;;;;;;4971801;28;45563;-40
2024/01/03 14:49:00;;;;;;;0.60;0.30;;;23.50;35.10;;;;;;4990907;28;45788;-40
2024/01/03 14:51:26;;;;;;;0.90;0.50;;;23.50;35.10;;;;;;4980037;28;44944;-39
2024/01/03 14:53:52;;;;;;;0.60;0.40;;;23.50;35.10;;;;;;4993568;28;44638;-40
2024/01/03 14:56:18;;;;;;;0.85;0.40;;;23.50;35.10;;;;;;4974711;28;45947;-39
2024/01/03 14:58:44;;;;;;;0.77;0.43;;;23.50;35.10;;;;;;4994235;28;45307;-40
2024/01/03 15:01:11;;;;;;;1.10;0.50;;;23.50;35.10;;;;;;4977624;28;45267;-39
2024/01/03 15:03:38;;;;;;;0.75;0.45;;;23.50;35.20;;;;;;4991587;28;46323;-40
2024/01/03 15:06:04;;;;;;;0.80;0.50;;;23.50;35.20;;;;;;4984159;28;45874;-40
2024/01/03 15:08:29;;;;;;;1.80;0.50;;;23.50;35.30;;;;;;4990035;28;45378;-39
2024/01/03 15:10:55;;;;;;;1.57;0.70;;;23.50;35.20;;;;;;4989023;28;45355;-40
2024/01/03 15:13:20;;;;;;;1.13;0.40;;;23.50;35.30;;;;;;4990567;28;45532;-39
2024/01/03 15:15:47;;;;;;;1.00;0.47;;;23.50;35.30;;;;;;4965596;28;45342;-40
2024/01/03 15:18:13;;;;;;;1.20;0.52;;;23.50;35.30;;;;;;4993805;28;45013;-39
2024/01/03 15:20:40;;;;;;;1.00;0.50;;;23.50;35.30;;;;;;4980177;28;45874;-40
2024/01/03 15:23:07;;;;;;;1.13;0.50;;;23.50;35.40;;;;;;4992130;28;45534;-39
2024/01/03 15:25:33;;;;;;;0.93;0.50;;;23.50;35.40;;;;;;4977826;28;46573;-40
2024/01/03 15:27:59;;;;;;;1.10;0.50;;;23.50;35.40;;;;;;4991009;28;45474;-39
2024/01/03 15:30:28;;;;;;;1.23;0.60;;;23.50;35.40;;;;;;4980196;28;45727;-49
2024/01/03 15:32:55;;;;;;;1.02;0.50;;;23.40;35.40;;;;;;4966995;28;45531;-40
2024/01/03 15:35:22;;;;;;;1.02;0.60;;;23.40;35.40;;;;;;4981362;28;45257;-39
2024/01/03 15:37:50;;;;;;;1.02;0.70;;;23.50;35.50;;;;;;4973827;28;45997;-39
2024/01/03 15:40:16;;;;;;;1.70;0.63;;;23.50;35.50;;;;;;4973498;28;44951;-40
2024/01/03 15:42:42;;;;;;;1.40;0.68;;;23.50;35.50;;;;;;4987747;28;45276;-40
2024/01/03 15:45:12;;;;;;;1.30;0.90;;;23.50;35.50;;;;;;4994534;28;46084;-39
2024/01/03 15:47:38;;;;;;;0.88;0.60;;;23.50;35.50;;;;;;4971717;28;44847;-39
2024/01/03 15:50:06;;;;;;;1.13;0.73;;;23.50;35.50;;;;;;4990179;28;45202;-39
2024/01/03 15:52:32;;;;;;;1.60;0.80;;;23.40;35.50;;;;;;4968424;28;45308;-40
2024/01/03 15:54:57;;;;;;;1.93;0.97;;;23.50;35.60;;;;;;5000036;28;45489;-39
2024/01/03 15:57:23;;;;;;;1.00;0.80;;;23.50;35.60;;;;;;4978995;28;45351;-39
2024/01/03 15:59:49;;;;;;;1.03;0.90;;;23.50;35.60;;;;;;4988344;28;46303;-40
2024/01/03 16:02:14;;;;;;;0.90;0.80;;;23.50;35.60;;;;;;4977139;28;45411;-40
2024/01/03 16:04:42;;;;;;;0.90;0.60;;;23.50;35.60;;;;;;4989422;28;45344;-40
2024/01/03 16:07:07;;;;;;;1.23;0.80;;;23.50;35.60;;;;;;4983523;28;45142;-40
2024/01/03 16:09:34;;;;;;;0.70;0.70;;;23.50;35.60;;;;;;4993175;28;45356;-40
2024/01/03 16:12:01;;;;;;;0.98;0.80;;;23.50;35.60;;;;;;4986000;28;45244;-39
2024/01/03 16:14:27;;;;;;;0.70;0.70;;;23.50;35.60;;;;;;4992383;28;45547;-39
2024/01/03 16:16:52;;;;;;;1.40;0.70;;;23.50;35.60;;;;;;4975810;28;45109;-39
2024/01/03 16:19:18;;;;;;;1.00;0.60;;;23.60;35.60;;;;;;4995260;28;44910;-40
2024/01/03 16:21:43;;;;;;;1.00;0.60;;;23.60;35.60;;;;;;4974577;28;46130;-39
2024/01/03 16:24:09;;;;;;;0.63;0.50;;;23.60;35.60;;;;;;4990882;28;45783;-40
2024/01/03 16:26:34;;;;;;;0.70;0.50;;;23.60;35.50;;;;;;4983216;28;46063;-40
2024/01/03 16:29:00;;;;;;;0.70;0.52;;;23.60;35.60;;;;;;4992763;28;45714;-39
2024/01/03 16:31:26;;;;;;;0.85;0.70;;;23.60;35.50;;;;;;4971591;28;45598;-39
2024/01/03 16:33:51;;;;;;;0.98;0.50;;;23.70;35.50;;;;;;4977071;28;45853;-41
2024/01/03 16:36:21;;;;;;;0.85;0.40;;;23.70;35.50;;;;;;4985436;28;45471;-39
2024/01/03 16:38:48;;;;;;;0.90;0.40;;;23.70;35.40;;;;;;4975357;28;46049;-40
2024/01/03 16:41:15;;;;;;;1.00;0.63;;;23.70;35.40;;;;;;4986073;28;44934;-40
2024/01/03 16:43:41;;;;;;;1.20;0.50;;;23.70;35.40;;;;;;4985741;28;47033;-39
2024/01/03 16:46:08;;;;;;;0.70;0.50;;;23.80;35.40;;;;;;4970655;28;44988;-39
2024/01/03 16:48:37;;;;;;;0.68;0.47;;;23.80;35.40;;;;;;4986612;28;45244;-40
2024/01/03 16:51:04;;;;;;;0.45;0.43;;;23.80;35.30;;;;;;4967090;28;45787;-39
2024/01/03 16:53:31;;;;;;;1.05;0.43;;;23.80;35.30;;;;;;4984631;28;46266;-40
2024/01/03 16:55:57;;;;;;;0.65;0.45;;;23.90;35.30;;;;;;4981170;28;45367;-39
2024/01/03 16:58:23;;;;;;;0.60;0.40;;;23.90;35.30;;;;;;4989540;28;45417;-39
2024/01/03 17:00:52;;;;;;;0.68;0.32;;;23.90;35.20;;;;;;4951578;28;45906;-39
2024/01/03 17:03:18;;;;;;;1.13;0.43;;;23.90;35.10;;;;;;4987764;28;45437;-40
2024/01/03 17:05:43;;;;;;;0.80;0.50;;;24.00;35.20;;;;;;4974266;28;45834;-39
2024/01/03 17:08:09;;;;;;;0.80;0.50;;;24.00;35.20;;;;;;4975568;28;45255;-40
2024/01/03 17:10:35;;;;;;;0.80;0.40;;;24.00;35.10;;;;;;4974704;28;45483;-39
2024/01/03 17:13:01;;;;;;;0.70;0.50;;;24.00;35.00;;;;;;4967962;28;45648;-40
2024/01/03 17:15:26;;;;;;;0.50;0.40;;;24.10;35.00;;;;;;4968786;28;45279;-40
2024/01/03 17:17:53;;;;;;;1.80;0.40;;;24.10;34.90;;;;;;4960362;28;45256;-40
2024/01/03 17:20:19;;;;;;;0.85;0.50;;;24.10;34.80;;;;;;4978503;28;45467;-40
2024/01/03 17:22:44;;;;;;;0.68;0.40;;;24.20;34.80;;;;;;4919044;28;46515;-41
2024/01/03 17:25:11;;;;;;;0.80;0.40;;;24.20;34.80;;;;;;4973275;28;45710;-39
2024/01/03 17:27:37;;;;;;;1.33;0.32;;;24.20;34.80;;;;;;4962962;28;45374;-40
2024/01/03 17:30:10;;;;;;;0.90;0.40;;;24.20;34.70;;;;;;4981865;28;45648;-39
2024/01/03 17:32:36;;;;;;;0.90;0.50;;;24.30;34.70;;;;;;4971419;28;45418;-40
2024/01/03 17:35:02;;;;;;;0.93;0.50;;;24.30;34.60;;;;;;4980109;28;45221;-40
2024/01/03 17:37:27;;;;;;;0.90;0.63;;;24.40;34.60;;;;;;4950746;28;46038;-41
2024/01/03 17:39:53;;;;;;;1.80;0.43;;;24.40;34.50;;;;;;4964774;28;46251;-43
2024/01/03 17:42:19;;;;;;;0.90;0.50;;;24.40;34.50;;;;;;4971989;28;46475;-39
2024/01/03 17:44:44;;;;;;;0.80;0.40;;;24.40;34.40;;;;;;4960240;28;46038;-39
2024/01/03 17:47:10;;;;;;;0.80;0.63;;;24.40;34.40;;;;;;4966768;28;47202;-39
2024/01/03 17:49:36;;;;;;;0.60;0.50;;;24.40;34.40;;;;;;4983286;28;45854;-39
2024/01/03 17:52:01;;;;;;;1.00;0.60;;;24.40;34.40;;;;;;4970350;28;47884;-40
2024/01/03 17:54:28;;;;;;;1.00;0.60;;;24.50;34.40;;;;;;4961273;28;46792;-40
2024/01/03 17:56:54;;;;;;;0.98;0.45;;;24.50;34.30;;;;;;4968433;28;46114;-39
2024/01/03 17:59:20;;;;;;;0.97;0.53;;;24.50;34.30;;;;;;4987088;28;46042;-40
2024/01/03 18:01:45;;;;;;;1.10;0.50;;;24.50;34.20;;;;;;4962084;28;45839;-40
2024/01/03 18:04:11;;;;;;;0.70;0.40;;;24.60;34.20;;;;;;4984267;28;47131;-40
2024/01/03 18:06:38;;;;;;;0.90;0.50;;;24.60;34.20;;;;;;4951761;28;45838;-39
2024/01/03 18:09:03;;;;;;;1.00;0.60;;;24.60;34.20;;;;;;4975893;28;46173;-40
2024/01/03 18:11:29;;;;;;;0.63;0.40;;;24.60;34.10;;;;;;4980579;28;45262;-39
2024/01/03 18:13:55;;;;;;;1.05;0.55;;;24.70;34.20;;;;;;4985458;28;46120;-40
2024/01/03 18:16:24;;;;;;;1.27;0.40;;;24.70;34.10;;;;;;4969712;28;46940;-39
2024/01/03 18:18:51;;;;;;;1.15;0.52;;;24.80;34.10;;;;;;4985409;28;45342;-40
2024/01/03 18:21:18;;;;;;;0.85;0.38;;;24.80;34.00;;;;;;4979563;28;45801;-40
2024/01/03 18:23:43;;;;;;;1.20;0.60;;;24.80;34.00;;;;;;4965130;28;45270;-40
2024/01/03 18:26:09;;;;;;;1.00;0.60;;;24.80;34.00;;;;;;4973455;28;45312;-39
2024/01/03 18:28:36;;;;;;;1.10;0.60;;;24.80;33.90;;;;;;4991948;28;46146;-40
2024/01/03 18:31:03;;;;;;;1.23;0.60;;;24.90;34.00;;;;;;4961511;28;45176;-40
2024/01/03 18:33:30;;;;;;;0.98;0.52;;;24.90;33.90;;;;;;4976240;28;46091;-39
2024/01/03 18:35:56;;;;;;;1.05;0.52;;;24.90;33.90;;;;;;4963201;28;46883;-40
2024/01/03 18:38:21;;;;;;;1.00;0.60;;;24.90;33.80;;;;;;4988375;28;45751;-41
2024/01/03 18:40:48;;;;;;;1.13;0.60;;;24.90;33.80;;;;;;4976519;28;46679;-39
2024/01/03 18:43:14;;;;;;;1.05;0.60;;;25.00;33.80;;;;;;4988414;28;45442;-39
2024/01/03 18:45:39;;;;;;;0.77;0.60;;;25.00;33.80;;;;;;4959739;28;45218;-39
2024/01/03 18:48:06;;;;;;;1.27;0.60;;;25.00;33.80;;;;;;4943839;28;46840;-39
2024/01/03 18:50:32;;;;;;;1.13;0.70;;;25.00;33.70;;;;;;4961494;28;46026;-39
2024/01/03 18:52:57;;;;;;;1.65;0.70;;;25.10;33.70;;;;;;4982131;28;45372;-39
2024/01/03 18:55:23;;;;;;;1.25;0.70;;;25.10;33.70;;;;;;4978977;28;45355;-39
2024/01/03 18:57:49;;;;;;;2.70;0.68;;;25.10;33.70;;;;;;4963049;28;44692;-43
2024/01/03 19:00:15;;;;;;;1.48;0.70;;;25.10;33.70;;;;;;4976156;28;47433;-40
2024/01/03 19:02:41;;;;;;;1.60;0.88;;;25.10;33.70;;;;;;4974019;28;45599;-40
2024/01/03 19:05:09;;;;;;;1.15;0.75;;;25.10;33.60;;;;;;4948201;28;45700;-39
2024/01/03 19:07:35;;;;;;;1.35;1.00;;;25.10;33.70;;;;;;4986712;28;45679;-40
2024/01/03 19:10:01;;;;;;;1.45;0.70;;;25.10;33.60;;;;;;4965209;28;45499;-40
2024/01/03 19:12:27;;;;;;;1.38;0.80;;;25.20;33.70;;;;;;4979557;28;45746;-40
2024/01/03 19:14:52;;;;;;;1.47;0.90;;;25.20;33.70;;;;;;4985271;28;45510;-40
2024/01/03 19:17:18;;;;;;;1.97;1.00;;;25.20;33.70;;;;;;4973343;28;45681;-40
2024/01/03 19:19:43;;;;;;;1.33;0.90;;;25.20;34.30;;;;;;4988106;28;45216;-40
2024/01/03 19:22:09;;;;;;;1.37;0.80;;;25.20;33.60;;;;;;4973503;28;45624;-39
2024/01/03 19:24:35;;;;;;;1.17;0.70;;;25.20;33.60;;;;;;4952367;28;45252;-40
2024/01/03 19:27:01;;;;;;;1.40;0.85;;;25.20;33.60;;;;;;4953694;28;45811;-41
2024/01/03 19:29:26;;;;;;;1.25;0.75;;;25.20;33.50;;;;;;4986561;28;45555;-40
2024/01/03 19:31:52;;;;;;;1.10;0.70;;;25.20;33.50;;;;;;4968784;28;45479;-41
2024/01/03 19:34:19;;;;;;;2.50;0.90;;;25.30;33.60;;;;;;4986359;28;47518;-40
2024/01/03 19:36:44;;;;;;;1.17;0.77;;;25.30;33.50;;;;;;4975034;28;45626;-39
2024/01/03 19:39:10;;;;;;;1.10;0.80;;;25.20;33.50;;;;;;4978077;28;45573;-39
2024/01/03 19:41:37;;;;;;;0.90;0.60;;;25.20;33.50;;;;;;4943796;28;45349;-40
2024/01/03 19:44:02;;;;;;;0.63;0.60;;;25.30;33.60;;;;;;4977479;28;46819;-39
2024/01/03 19:46:32;;;;;;;0.87;0.70;;;25.30;33.50;;;;;;4970603;28;45852;-40
2024/01/03 19:49:01;;;;;;;1.60;0.70;;;25.30;33.50;;;;;;4981094;28;45653;-40
2024/01/03 19:51:27;;;;;;;0.88;0.63;;;25.30;33.70;;;;;;4963441;28;45272;-39
2024/01/03 19:53:53;;;;;;;1.42;0.60;;;25.30;33.50;;;;;;4981151;28;45443;-40
2024/01/03 19:56:19;;;;;;;1.60;0.60;;;25.30;33.50;;;;;;4964930;28;45249;-39
2024/01/03 19:58:45;;;;;;;1.38;0.70;;;25.30;33.50;;;;;;4980661;28;45809;-39
2024/01/03 20:01:11;;;;;;;1.23;0.60;;;25.30;33.40;;;;;;4971096;28;45099;-39
2024/01/03 20:03:36;;;;;;;1.37;0.67;;;25.30;33.40;;;;;;4979756;28;45285;-39
2024/01/03 20:06:02;;;;;;;0.53;0.47;;;25.30;33.40;;;;;;4974288;28;45729;-42
2024/01/03 20:08:30;;;;;;;0.60;0.47;;;25.30;33.40;;;;;;4983468;28;46004;-42
2024/01/03 20:10:56;;;;;;;1.93;0.50;;;25.30;33.40;;;;;;4972401;28;45400;-38